RoSS Sea — WDE3122 — position and weather

sailwx.info

Track history (hours):
 
Tides and Currents Weather Stations Pressure Air Temp Water Temp Dewpoint Dewpoint Depression Visibility Wind Speed Wind Dir Waves Ship Positions

RoSS Sea

Owner: Kirby Inland Marine, LP, Houston, TX. More information available from US FCC via Universal Licensing System and Coast Guard Vessel Documentation Center.

Last reported at 2015-May-21 09:33 UTC. Time now 2015-May-23 10:18 UTC.
Position N 26°50' W 079°59'.

Length 30 m; draft 5 m.

Type: Towing. MMSI: 367334360.

Date/timePositionNaut miles runAvg speedWind from/ knotsBaromVisibWave heightAir tempDewpointWater temp
2015-May-21 09:33N 26°50' W 079°59'2 2.2
2015-May-21 08:33N 26°52' W 079°59'2 2.3
2015-May-21 07:33N 26°54' W 079°59'2 2.3
2015-May-21 06:33N 26°56' W 079°60'3 2.6
2015-May-21 05:30N 26°59' W 079°60'  
2015-May-16 12:30N 39°31' W 073°60'44 8.4
2015-May-16 07:15N 40°14' W 073°50'6 9.0
2015-May-16 06:33N 40°20' W 073°49'8 8.4
2015-May-16 05:33N 40°28' W 073°53'10 9.6
2015-May-16 04:33N 40°35' W 074°02'10 9.9
2015-May-16 03:33N 40°44' W 074°01'9 9.3
2015-May-16 02:33N 40°53' W 073°56'3 0.3
2015-May-15 15:29N 40°56' W 073°55'17 8.9
2015-May-15 13:33N 40°40' W 074°03'1 0.7
2015-May-15 12:29N 40°40' W 074°04'1 1.0
2015-May-15 11:33N 40°40' W 074°03'1 0.9
2015-May-15 10:33N 40°40' W 074°02'4 4.2
2015-May-15 09:34N 40°36' W 074°02'10 7.2
2015-May-15 08:14N 40°28' W 073°55'6 9.4
2015-May-15 07:33N 40°32' W 074°02'1010.5
2015-May-15 06:34N 40°43' W 074°01'1211.8
2015-May-15 05:33N 40°54' W 073°56'1 0.1
2015-May-14 20:06N 40°53' W 073°56'611.2
2015-May-14 19:33N 40°47' W 073°59'9 9.5
2015-May-14 18:33N 40°39' W 074°05'3 3.1
2015-May-14 17:28N 40°38' W 074°10'4 4.6
2015-May-14 16:34N 40°39' W 074°04'1212.1
2015-May-14 15:34N 40°50' W 073°58'  
Track history (hours):
 
Tides and Currents Weather Stations Pressure Air Temp Water Temp Dewpoint Dewpoint Depression Visibility Wind Speed Wind Dir Waves Ship Positions

RoSS Sea

Owner: Kirby Inland Marine, LP, Houston, TX. More information available from US FCC via Universal Licensing System and Coast Guard Vessel Documentation Center.

Last reported at 2015-May-21 09:33 UTC. Time now 2015-May-23 10:18 UTC.
Position N 26°50' W 079°59'.

Length 30 m; draft 5 m.

Type: Towing. MMSI: 367334360.

Date/timePositionNaut miles runAvg speedWind from/ knotsBaromVisibWave heightAir tempDewpointWater temp
2015-May-21 09:33N 26°50' W 079°59'2 2.2
2015-May-21 08:33N 26°52' W 079°59'2 2.3
2015-May-21 07:33N 26°54' W 079°59'2 2.3
2015-May-21 06:33N 26°56' W 079°60'3 2.6
2015-May-21 05:30N 26°59' W 079°60'  
2015-May-16 12:30N 39°31' W 073°60'44 8.4
2015-May-16 07:15N 40°14' W 073°50'6 9.0
2015-May-16 06:33N 40°20' W 073°49'8 8.4
2015-May-16 05:33N 40°28' W 073°53'10 9.6
2015-May-16 04:33N 40°35' W 074°02'10 9.9
2015-May-16 03:33N 40°44' W 074°01'9 9.3
2015-May-16 02:33N 40°53' W 073°56'3 0.3
2015-May-15 15:29N 40°56' W 073°55'17 8.9
2015-May-15 13:33N 40°40' W 074°03'1 0.7
2015-May-15 12:29N 40°40' W 074°04'1 1.0
2015-May-15 11:33N 40°40' W 074°03'1 0.9
2015-May-15 10:33N 40°40' W 074°02'4 4.2
2015-May-15 09:34N 40°36' W 074°02'10 7.2
2015-May-15 08:14N 40°28' W 073°55'6 9.4
2015-May-15 07:33N 40°32' W 074°02'1010.5
2015-May-15 06:34N 40°43' W 074°01'1211.8
2015-May-15 05:33N 40°54' W 073°56'1 0.1
2015-May-14 20:06N 40°53' W 073°56'611.2
2015-May-14 19:33N 40°47' W 073°59'9 9.5
2015-May-14 18:33N 40°39' W 074°05'3 3.1
2015-May-14 17:28N 40°38' W 074°10'4 4.6
2015-May-14 16:34N 40°39' W 074°04'1212.1
2015-May-14 15:34N 40°50' W 073°58'  

Dump ship's entire track history